createdAt,value
2017-08-31T00:00:03.541Z,80.9
2017-08-31T00:05:02.870Z,81.38
2017-08-31T00:10:03.342Z,81.63
2017-08-31T00:15:02.761Z,81.73
2017-08-31T00:20:03.343Z,82.11
2017-08-31T00:25:02.783Z,82.3
2017-08-31T00:30:03.401Z,82.68
2017-08-31T00:35:02.756Z,83.36
2017-08-31T00:40:03.356Z,83.83
2017-08-31T00:45:02.807Z,84.02
2017-08-31T00:50:03.368Z,84.22
2017-08-31T00:55:02.758Z,84.22
2017-08-31T01:00:03.496Z,84.12
2017-08-31T01:05:02.881Z,84.17
2017-08-31T01:10:03.593Z,84.36
2017-08-31T01:15:03.151Z,84.65
2017-08-31T01:20:02.749Z,85.13
2017-08-31T01:25:03.214Z,85.71
2017-08-31T01:30:03.641Z,86.08
2017-08-31T01:35:03.101Z,86.28
2017-08-31T01:40:03.594Z,86.76
2017-08-31T01:45:02.949Z,87.43
2017-08-31T01:50:03.648Z,87.9
2017-08-31T01:55:03.244Z,88.19
2017-08-31T02:00:02.931Z,88.57
2017-08-31T02:05:03.401Z,88.76
2017-08-31T02:10:03.003Z,89.01
2017-08-31T02:15:03.514Z,89.2
2017-08-31T02:20:03.068Z,89.39
2017-08-31T02:25:03.486Z,89.48
2017-08-31T02:30:03.048Z,89.67
2017-08-31T02:35:03.600Z,89.87
2017-08-31T02:40:03.048Z,90.25
2017-08-31T02:45:03.497Z,90.25
2017-08-31T02:50:03.139Z,90.63
2017-08-31T02:55:03.541Z,90.73
2017-08-31T03:00:03.098Z,90.92
2017-08-31T03:05:03.542Z,90.92
2017-08-31T03:10:03.001Z,91.11
2017-08-31T03:15:03.568Z,91.39
2017-08-31T03:20:02.973Z,91.2
2017-08-31T03:25:03.394Z,91.11
2017-08-31T03:30:02.806Z,91.02
2017-08-31T03:35:03.402Z,91.2
2017-08-31T03:40:02.882Z,91.2
2017-08-31T03:45:03.270Z,91.49
2017-08-31T03:50:02.726Z,91.49
2017-08-31T03:55:03.131Z,91.39
2017-08-31T04:00:03.578Z,91.49
2017-08-31T04:05:02.979Z,91.59
2017-08-31T04:10:03.576Z,91.59
2017-08-31T04:15:03.121Z,91.68
2017-08-31T04:20:03.559Z,91.78
2017-08-31T04:25:03.268Z,91.78
2017-08-31T04:30:03.006Z,92.16
2017-08-31T04:35:03.480Z,92.25
2017-08-31T04:40:02.940Z,92.35
2017-08-31T04:45:03.611Z,92.35
2017-08-31T04:50:03.129Z,92.25
2017-08-31T04:55:03.594Z,92.07
2017-08-31T05:00:03.182Z,91.88
2017-08-31T05:05:03.600Z,91.59
2017-08-31T05:10:03.041Z,91.59
2017-08-31T05:15:03.579Z,91.59
2017-08-31T05:20:03.024Z,91.83
2017-08-31T05:25:03.604Z,92.11
2017-08-31T05:30:03.009Z,92.3
2017-08-31T05:35:03.553Z,92.4
2017-08-31T05:40:03.104Z,92.4
2017-08-31T05:45:03.595Z,92.59
2017-08-31T05:50:03.212Z,92.69
2017-08-31T05:55:03.625Z,92.79
2017-08-31T06:00:03.025Z,92.88
2017-08-31T06:05:03.442Z,93.02
2017-08-31T06:10:02.991Z,93.02
2017-08-31T06:15:03.696Z,92.93
2017-08-31T06:20:03.097Z,92.93
2017-08-31T06:25:03.700Z,93.12
2017-08-31T06:30:03.113Z,93.21
2017-08-31T06:35:03.637Z,93.21
2017-08-31T06:40:03.199Z,93.21
2017-08-31T06:45:03.668Z,93.21
2017-08-31T06:50:03.171Z,93.5
2017-08-31T06:55:03.726Z,93.69
2017-08-31T07:00:03.229Z,93.6
2017-08-31T07:05:02.700Z,94.07
2017-08-31T07:10:03.313Z,94.93
2017-08-31T07:15:02.774Z,95.32
2017-08-31T07:20:03.266Z,95.61
2017-08-31T07:25:02.809Z,95.89
2017-08-31T07:30:03.229Z,96.08
2017-08-31T07:35:02.733Z,97.33
2017-08-31T07:40:03.225Z,97.99
2017-08-31T07:45:03.669Z,98.18
2017-08-31T07:50:03.117Z,97.99
2017-08-31T07:55:03.685Z,97.23
2017-08-31T08:00:03.134Z,97.99
2017-08-31T08:05:03.567Z,97.8
2017-08-31T08:10:03.222Z,98.66
2017-08-31T08:15:03.695Z,97.95
2017-08-31T08:20:03.329Z,99.99
2017-08-31T08:25:02.909Z,99.99
2017-08-31T08:30:03.508Z,99.99
2017-08-31T08:35:02.929Z,99.99
2017-08-31T08:40:03.467Z,99.99
2017-08-31T08:45:02.972Z,99.99
2017-08-31T08:50:03.522Z,99.99
2017-08-31T08:55:02.999Z,99.99
2017-08-31T09:00:03.491Z,99.99
2017-08-31T09:05:02.919Z,99.99
2017-08-31T09:10:03.530Z,99.99
2017-08-31T09:15:02.949Z,99.99
2017-08-31T09:20:03.394Z,99.99
2017-08-31T09:25:02.858Z,99.99
2017-08-31T09:30:03.394Z,99.99
2017-08-31T09:35:02.843Z,99.99
2017-08-31T09:40:03.306Z,99.99
2017-08-31T09:45:02.734Z,99.99
2017-08-31T09:50:03.269Z,99.99
2017-08-31T09:55:02.735Z,99.99
2017-08-31T10:00:03.120Z,99.99
2017-08-31T10:05:02.753Z,99.99
2017-08-31T10:10:03.282Z,99.99
2017-08-31T10:15:02.829Z,99.99
2017-08-31T10:20:03.384Z,99.99
2017-08-31T10:25:02.733Z,99.99
2017-08-31T10:30:03.305Z,99.99
2017-08-31T10:35:02.860Z,99.99
2017-08-31T10:40:03.438Z,99.99
2017-08-31T10:45:03.018Z,99.99
2017-08-31T10:50:03.467Z,99.99
2017-08-31T10:55:03.008Z,99.99
2017-08-31T11:00:03.586Z,99.99
2017-08-31T11:05:02.982Z,99.99
2017-08-31T11:10:03.507Z,99.99
2017-08-31T11:20:03.533Z,99.99
2017-08-31T11:25:03.071Z,99.99
2017-08-31T11:30:04.156Z,99.99
2017-08-31T11:35:04.399Z,99.99
2017-08-31T11:40:03.003Z,99.99
2017-08-31T11:50:03.202Z,99.99
2017-08-31T11:55:02.842Z,99.99
2017-08-31T12:00:03.313Z,99.99
2017-08-31T12:05:02.939Z,99.99
2017-08-31T12:10:03.537Z,99.99
2017-08-31T12:15:03.092Z,99.99
2017-08-31T12:20:02.754Z,99.99
2017-08-31T12:25:03.313Z,99.99
2017-08-31T12:30:02.743Z,99.99
2017-08-31T12:35:03.443Z,99.99
2017-08-31T12:40:03.036Z,99.99
2017-08-31T12:45:03.615Z,99.99
2017-08-31T12:50:03.147Z,99.99
2017-08-31T12:55:02.703Z,99.99
2017-08-31T13:00:03.212Z,99.99
2017-08-31T13:05:02.803Z,99.99
2017-08-31T13:10:03.324Z,99.99
2017-08-31T13:15:02.901Z,99.99
2017-08-31T13:20:03.510Z,99.99
2017-08-31T13:25:03.042Z,99.99
2017-08-31T13:30:03.489Z,99.99
2017-08-31T13:35:02.919Z,99.99
2017-08-31T13:40:03.535Z,99.99
2017-08-31T13:45:02.922Z,99.99
2017-08-31T13:50:03.443Z,99.99
2017-08-31T13:55:02.980Z,99.99
2017-08-31T14:00:03.560Z,99.99
2017-08-31T14:05:02.945Z,99.99
2017-08-31T14:10:03.565Z,99.99
2017-08-31T14:15:03.225Z,99.99
2017-08-31T14:20:03.700Z,99.99
2017-08-31T14:25:03.325Z,97.19
2017-08-31T14:30:02.734Z,90.53
2017-08-31T14:35:03.389Z,84.42
2017-08-31T14:40:02.966Z,83.99
2017-08-31T14:45:03.497Z,85.38
2017-08-31T14:50:03.087Z,84.22
2017-08-31T14:55:03.647Z,84.07
2017-08-31T15:00:03.090Z,83.78
2017-08-31T15:05:03.662Z,80.99
2017-08-31T15:10:03.179Z,82.59
2017-08-31T15:15:03.584Z,83.56
2017-08-31T15:20:03.030Z,85.05
2017-08-31T15:25:03.530Z,84.52
2017-08-31T15:30:03.038Z,83.64
2017-08-31T15:35:03.496Z,83.84
2017-08-31T15:40:02.972Z,82.87
2017-08-31T15:45:03.547Z,83.26
2017-08-31T15:50:03.146Z,85
2017-08-31T15:55:03.573Z,86.07
2017-08-31T16:00:03.224Z,87.03
2017-08-31T16:05:02.704Z,88.04
2017-08-31T16:10:03.370Z,90.16
2017-08-31T16:15:03.055Z,91.17
2017-08-31T16:20:03.524Z,92.33
2017-08-31T16:25:03.128Z,92.61
2017-08-31T16:30:03.568Z,93.19
2017-08-31T16:35:03.236Z,94.15
2017-08-31T16:40:03.658Z,94.35
2017-08-31T16:45:03.100Z,94.3
2017-08-31T16:50:03.614Z,95.65
2017-08-31T16:55:03.173Z,96.51
2017-08-31T17:00:02.783Z,96.94
2017-08-31T17:05:03.411Z,95.45
2017-08-31T17:10:02.878Z,95.75
2017-08-31T17:15:03.439Z,96.13
2017-08-31T17:20:02.874Z,96.8
2017-08-31T17:25:03.320Z,97.96
2017-08-31T17:30:02.736Z,97.38
2017-08-31T17:35:03.184Z,98.58
2017-08-31T17:40:02.818Z,98.29
2017-08-31T17:45:03.402Z,99.4
2017-08-31T17:50:02.911Z,99.99
2017-08-31T17:55:03.366Z,99.99
2017-08-31T18:00:02.752Z,99.99
2017-08-31T18:05:03.365Z,99.99
2017-08-31T18:10:02.824Z,99.99
2017-08-31T18:15:03.284Z,99.99
2017-08-31T18:20:02.813Z,99.99
2017-08-31T18:25:03.237Z,99.99
2017-08-31T18:30:03.708Z,99.99
2017-08-31T18:35:03.176Z,99.99
2017-08-31T18:40:03.639Z,99.99
2017-08-31T18:45:03.233Z,99.99
2017-08-31T18:50:03.716Z,99.99
2017-08-31T18:55:03.302Z,99.99
2017-08-31T19:00:02.819Z,99.99
2017-08-31T19:05:03.372Z,99.99
2017-08-31T19:10:03.066Z,99.99
2017-08-31T19:15:03.685Z,99.99
2017-08-31T19:20:03.161Z,99.99
2017-08-31T19:25:02.769Z,99.99
2017-08-31T19:30:03.194Z,99.99
2017-08-31T19:35:03.674Z,99.99
2017-08-31T19:40:03.170Z,99.99
2017-08-31T19:45:02.669Z,99.99
2017-08-31T19:50:03.210Z,99.99
2017-08-31T19:55:02.810Z,99.99
2017-08-31T20:00:03.297Z,99.99
2017-08-31T20:05:02.965Z,99.99
2017-08-31T20:10:03.487Z,99.99
2017-08-31T20:15:03.227Z,99.99
2017-08-31T20:20:02.844Z,99.99
2017-08-31T20:25:03.302Z,99.99
2017-08-31T20:30:02.891Z,99.99
2017-08-31T20:35:03.552Z,99.99
2017-08-31T20:40:03.060Z,99.99
2017-08-31T20:45:03.528Z,99.99
2017-08-31T20:50:02.963Z,99.99
2017-08-31T20:55:03.407Z,99.99
2017-08-31T21:00:02.788Z,99.99
2017-08-31T21:05:03.397Z,99.99
2017-08-31T21:10:03.024Z,99.99
2017-08-31T21:15:03.649Z,99.99
2017-08-31T21:20:03.170Z,99.99
2017-08-31T21:25:03.683Z,99.99
2017-08-31T21:30:03.244Z,99.99
2017-08-31T21:35:02.870Z,99.99
2017-08-31T21:40:03.346Z,99.99
2017-08-31T21:45:03.007Z,99.99
2017-08-31T21:50:03.530Z,99.99
2017-08-31T21:55:03.144Z,99.99
2017-08-31T22:00:02.736Z,99.99
2017-08-31T22:05:03.615Z,99.99
2017-08-31T22:10:03.216Z,99.99
2017-08-31T22:15:02.734Z,99.99
2017-08-31T22:20:03.209Z,99.99
2017-08-31T22:25:02.843Z,99.99
2017-08-31T22:30:03.301Z,99.99
2017-08-31T22:35:03.219Z,99.99
2017-08-31T22:40:02.697Z,99.99
2017-08-31T22:45:03.268Z,99.99
2017-08-31T22:50:02.924Z,99.99
2017-08-31T22:55:03.500Z,99.99
2017-08-31T23:00:03.623Z,99.99
2017-08-31T23:05:03.375Z,99.99
2017-08-31T23:10:03.004Z,99.99
2017-08-31T23:15:03.436Z,99.99
2017-08-31T23:20:02.989Z,99.99
2017-08-31T23:25:03.609Z,99.99
2017-08-31T23:30:03.236Z,99.99
2017-08-31T23:35:02.779Z,99.99
2017-08-31T23:40:03.350Z,99.99
2017-08-31T23:45:02.763Z,99.99
2017-08-31T23:50:03.399Z,99.99
2017-08-31T23:55:02.982Z,99.99
